Time;durP1;ratioP1;P1;durP2;ratioP2;P2;SDS_P1;SDS_P2;PMS_P1;PMS_P2;Temp;Humidity;BMP_temperature;BMP_pressure;BME280_temperature;BME280_humidity;BME280_pressure;Samples;Min_cycle;Max_cycle;Signal;HPM_P1;HPM_P2
2022/02/14 00:01:36;;;;;;;;;7.75;5.00;;;;;12.39;54.86;99337.59;5077183;28;74583;-60
2022/02/14 00:04:02;;;;;;;;;5.75;5.00;;;;;12.37;54.96;99342.22;5077046;28;71659;-60
2022/02/14 00:06:27;;;;;;;;;6.75;6.75;;;;;12.31;55.36;99341.13;5077497;28;58676;-60
2022/02/14 00:08:52;;;;;;;;;5.50;5.00;;;;;12.27;55.80;99331.94;5059230;28;65072;-59
2022/02/14 00:11:18;;;;;;;;;6.50;6.50;;;;;12.24;55.96;99334.94;5077263;28;63880;-59
2022/02/14 00:13:44;;;;;;;;;6.00;6.00;;;;;12.21;56.55;99324.75;5078012;28;45380;-59
2022/02/14 00:16:09;;;;;;;;;7.00;6.00;;;;;12.16;57.11;99320.03;5077809;28;45258;-60
2022/02/14 00:18:35;;;;;;;;;19.00;15.50;;;;;12.10;56.82;99320.72;5077841;28;45303;-60
2022/02/14 00:21:00;;;;;;;;;9.00;8.00;;;;;12.02;57.27;99330.31;5077762;28;46193;-60
2022/02/14 00:23:26;;;;;;;;;7.75;6.50;;;;;11.98;57.34;99318.47;5076918;28;65479;-60
2022/02/14 00:25:51;;;;;;;;;11.00;10.25;;;;;11.94;57.93;99319.81;5076928;28;67142;-60
2022/02/14 00:28:17;;;;;;;;;6.00;6.00;;;;;11.91;57.48;99307.00;5076764;28;63763;-59
2022/02/14 00:30:42;;;;;;;;;9.50;9.25;;;;;11.88;58.36;99308.19;5075896;27;45213;-60
2022/02/14 00:33:07;;;;;;;;;11.00;10.00;;;;;11.83;57.99;99304.41;5077518;28;45240;-60
2022/02/14 00:35:33;;;;;;;;;9.75;7.00;;;;;11.80;58.36;99295.06;5076588;28;65828;-60
2022/02/14 00:37:59;;;;;;;;;8.00;5.00;;;;;11.81;57.83;99304.59;5077660;28;45551;-60
2022/02/14 00:40:24;;;;;;;;;8.75;6.00;;;;;11.78;57.93;99302.31;5076637;28;67684;-60
2022/02/14 00:42:49;;;;;;;;;7.00;4.50;;;;;11.76;57.66;99300.84;5076431;28;67923;-59
2022/02/14 00:45:16;;;;;;;;;8.00;6.00;;;;;11.72;58.00;99292.50;5077422;28;45598;-60
2022/02/14 00:47:41;;;;;;;;;12.00;10.00;;;;;11.70;57.88;99284.75;5077205;28;45574;-61
2022/02/14 00:50:08;;;;;;;;;6.00;6.00;;;;;11.69;57.65;99290.22;5076290;28;45433;-60
2022/02/14 00:52:33;;;;;;;;;9.50;7.00;;;;;11.67;57.47;99279.84;5076710;28;45376;-61
2022/02/14 00:54:59;;;;;;;;;5.50;4.25;;;;;11.67;57.46;99279.84;5076950;28;45457;-59
2022/02/14 00:57:25;;;;;;;;;6.50;5.00;;;;;11.66;57.45;99278.19;5076367;28;63640;-61
2022/02/14 00:59:50;;;;;;;;;5.50;5.25;;;;;11.65;58.13;99275.75;5077177;28;46107;-61
2022/02/14 01:02:16;;;;;;;;;8.75;6.50;;;;;11.65;57.42;99268.69;5077152;28;45316;-61
2022/02/14 01:04:41;;;;;;;;;6.00;5.50;;;;;11.66;57.46;99265.03;5076728;28;50337;-61
2022/02/14 01:07:06;;;;;;;;;4.25;4.00;;;;;11.68;57.24;99255.16;5076537;28;60942;-61
2022/02/14 01:09:32;;;;;;;;;7.25;6.25;;;;;11.68;57.85;99257.78;5077079;28;45821;-61
2022/02/14 01:11:57;;;;;;;;;5.50;4.75;;;;;11.67;57.65;99266.69;5058286;28;63087;-60
2022/02/14 01:14:22;;;;;;;;;6.00;4.50;;;;;11.68;57.30;99259.63;5076349;28;64340;-61
2022/02/14 01:16:48;;;;;;;;;5.00;4.75;;;;;11.67;57.29;99253.53;5075953;28;68922;-61
2022/02/14 01:19:13;;;;;;;;;5.00;4.25;;;;;11.68;57.58;99259.63;5076861;28;45223;-61
2022/02/14 01:21:39;;;;;;;;;9.25;4.50;;;;;11.70;57.43;99260.28;5076755;28;45231;-61
2022/02/14 01:24:04;;;;;;;;;5.25;4.00;;;;;11.70;57.76;99255.00;5057891;28;64533;-61
2022/02/14 01:26:29;;;;;;;;;7.00;4.00;;;;;11.71;57.61;99254.00;5076818;28;45173;-61
2022/02/14 01:28:55;;;;;;;;;4.50;4.50;;;;;11.72;57.63;99250.38;5075994;28;61939;-61
2022/02/14 01:31:20;;;;;;;;;8.25;4.00;;;;;11.73;57.90;99247.56;5076373;27;45236;-60
2022/02/14 01:33:46;;;;;;;;;4.75;4.25;;;;;11.74;57.33;99248.41;5076745;28;45295;-61
2022/02/14 01:36:11;;;;;;;;;5.00;4.00;;;;;11.75;57.45;99251.84;5075892;28;59365;-60
2022/02/14 01:38:36;;;;;;;;;3.25;3.25;;;;;11.75;57.36;99244.78;5076465;28;46114;-60
2022/02/14 01:41:02;;;;;;;;;6.75;4.00;;;;;11.77;57.49;99236.69;5075821;28;64297;-60
2022/02/14 01:43:27;;;;;;;;;8.50;6.00;;;;;11.79;57.77;99247.88;5074820;28;69367;-60
2022/02/14 01:45:52;;;;;;;;;6.00;5.00;;;;;11.80;57.25;99236.34;5075837;28;61182;-61
2022/02/14 01:48:18;;;;;;;;;6.25;4.50;;;;;11.81;57.72;99236.19;5075843;28;61603;-61
2022/02/14 01:50:45;;;;;;;;;4.25;4.00;;;;;11.84;57.52;99240.25;5075522;28;67092;-61
2022/02/14 01:53:10;;;;;;;;;6.50;6.00;;;;;11.84;57.25;99241.09;5058343;28;45445;-61
2022/02/14 01:55:36;;;;;;;;;10.75;8.75;;;;;11.85;57.12;99229.56;5057329;28;65759;-61
2022/02/14 01:58:02;;;;;;;;;9.00;7.50;;;;;11.85;57.61;99239.25;5075585;28;59131;-61
2022/02/14 02:00:29;;;;;;;;;6.00;5.25;;;;;11.87;57.11;99226.75;5057367;28;45348;-61
2022/02/14 02:02:54;;;;;;;;;5.50;4.25;;;;;11.89;57.58;99219.50;5076501;28;45401;-61
2022/02/14 02:05:21;;;;;;;;;4.75;4.75;;;;;11.91;57.53;99217.50;5076339;28;45366;-60
2022/02/14 02:07:46;;;;;;;;;5.50;5.50;;;;;11.93;57.48;99214.69;5058216;28;46308;-61
2022/02/14 02:10:12;;;;;;;;;5.75;5.50;;;;;11.94;57.22;99222.41;5056921;28;66821;-61
2022/02/14 02:12:38;;;;;;;;;8.25;5.50;;;;;11.94;57.30;99214.53;5076181;28;45275;-61
2022/02/14 02:15:04;;;;;;;;;5.25;4.00;;;;;11.95;57.42;99210.91;5058105;28;45292;-61
2022/02/14 02:17:31;;;;;;;;;6.75;5.75;;;;;11.97;57.62;99200.16;5075173;28;46982;-61
2022/02/14 02:19:56;;;;;;;;;4.50;4.50;;;;;12.00;57.58;99197.22;5057699;28;45482;-60
2022/02/14 02:22:22;;;;;;;;;8.75;5.25;;;;;12.00;57.52;99192.78;5075075;28;69341;-60
2022/02/14 02:24:52;;;;;;;;;7.50;4.00;;;;;12.02;57.44;99189.97;5057983;28;45368;-61
2022/02/14 02:27:18;;;;;;;;;5.00;4.25;;;;;12.05;57.89;99192.25;5075799;28;46202;-61
2022/02/14 02:29:43;;;;;;;;;6.00;5.00;;;;;12.05;58.02;99191.44;5075741;27;45317;-61
2022/02/14 02:32:09;;;;;;;;;6.50;4.00;;;;;12.06;57.83;99196.50;5076054;28;45431;-60
2022/02/14 02:34:38;;;;;;;;;8.25;6.00;;;;;12.08;57.86;99205.03;5075737;28;45470;-61
2022/02/14 02:37:04;;;;;;;;;6.00;5.75;;;;;12.10;58.01;99195.16;5075801;28;46072;-61
2022/02/14 02:39:29;;;;;;;;;6.00;5.00;;;;;12.11;57.59;99196.78;5075777;28;45378;-61
2022/02/14 02:41:56;;;;;;;;;5.50;3.00;;;;;12.14;58.01;99206.97;5075391;28;53853;-61
2022/02/14 02:44:21;;;;;;;;;4.75;4.25;;;;;12.15;58.40;99194.63;5075899;28;45583;-61
2022/02/14 02:46:47;;;;;;;;;5.50;4.50;;;;;12.18;58.50;99212.72;5074624;28;75751;-61
2022/02/14 02:49:16;;;;;;;;;5.00;4.25;;;;;12.20;58.27;99194.09;5074623;28;73173;-60
2022/02/14 02:51:43;;;;;;;;;5.75;4.25;;;;;12.20;58.63;99189.63;5075824;28;45362;-60
2022/02/14 02:54:09;;;;;;;;;3.75;3.75;;;;;12.22;58.40;99187.63;5077642;28;45166;-61
2022/02/14 02:56:34;;;;;;;;;7.00;5.50;;;;;12.23;58.94;99194.53;5078921;28;45994;-60
2022/02/14 02:59:00;;;;;;;;;6.75;5.25;;;;;12.25;59.20;99174.09;5079058;28;45351;-61
2022/02/14 03:01:25;;;;;;;;;5.25;4.75;;;;;12.26;59.34;99175.75;5079247;28;45458;-61
2022/02/14 03:03:52;;;;;;;;;5.00;4.00;;;;;12.28;59.33;99180.84;5079034;28;45503;-61
2022/02/14 03:06:18;;;;;;;;;6.25;5.50;;;;;12.26;59.31;99172.31;5060598;28;46864;-59
2022/02/14 03:08:44;;;;;;;;;4.75;3.75;;;;;12.30;59.02;99181.47;5078891;28;45741;-61
2022/02/14 03:11:09;;;;;;;;;5.00;4.75;;;;;12.30;59.05;99168.31;5078218;28;61839;-60
2022/02/14 03:13:35;;;;;;;;;5.25;4.00;;;;;12.31;59.64;99159.41;5078169;28;64558;-61
2022/02/14 03:16:00;;;;;;;;;4.00;4.00;;;;;12.32;59.37;99177.66;5078593;28;45998;-60
2022/02/14 03:18:25;;;;;;;;;5.50;4.00;;;;;12.33;59.60;99181.13;5077650;28;73168;-61
2022/02/14 03:20:51;;;;;;;;;3.25;3.25;;;;;12.32;59.63;99169.75;5078008;28;63602;-61
2022/02/14 03:23:16;;;;;;;;;5.25;3.00;;;;;12.32;60.33;99166.31;5078575;28;45538;-61
2022/02/14 03:25:41;;;;;;;;;4.00;4.00;;;;;12.34;60.13;99182.75;5077479;28;68757;-61
2022/02/14 03:28:07;;;;;;;;;3.75;3.75;;;;;12.31;60.88;99178.66;5078513;28;45330;-61
2022/02/14 03:30:32;;;;;;;;;3.50;3.50;;;;;12.31;60.82;99172.56;5077700;27;61210;-60
2022/02/14 03:32:57;;;;;;;;;6.75;4.25;;;;;12.28;62.15;99176.38;5077611;28;67506;-61
2022/02/14 03:35:23;;;;;;;;;4.50;3.25;;;;;12.28;62.04;99175.56;5077196;28;72138;-61
2022/02/14 03:37:51;;;;;;;;;5.50;4.50;;;;;12.25;62.52;99179.38;5077657;28;58558;-61
2022/02/14 03:40:16;;;;;;;;;6.00;3.75;;;;;12.21;62.22;99170.19;5078594;28;45315;-60
2022/02/14 03:42:42;;;;;;;;;4.00;4.00;;;;;12.18;62.62;99170.59;5078682;28;45659;-61
2022/02/14 03:45:08;;;;;;;;;4.25;4.25;;;;;12.13;62.69;99162.41;5077281;28;66818;-61
2022/02/14 03:47:33;;;;;;;;;5.25;4.00;;;;;12.10;62.35;99184.63;5078110;28;45363;-61
2022/02/14 03:49:58;;;;;;;;;2.25;2.25;;;;;12.08;62.80;99196.34;5077455;28;63485;-61
2022/02/14 03:52:24;;;;;;;;;5.00;5.00;;;;;12.06;63.03;99190.44;5078288;28;45443;-61
2022/02/14 03:54:49;;;;;;;;;6.00;4.00;;;;;12.04;63.46;99193.22;5077322;28;67678;-60
2022/02/14 03:57:15;;;;;;;;;4.00;3.75;;;;;12.03;63.16;99191.59;5059845;28;45543;-61
2022/02/14 03:59:41;;;;;;;;;5.00;4.00;;;;;12.04;63.36;99214.28;5077455;28;64819;-60
2022/02/14 04:02:06;;;;;;;;;6.50;4.00;;;;;12.03;63.44;99223.19;5078166;28;45573;-60
2022/02/14 04:04:32;;;;;;;;;3.75;3.75;;;;;12.00;64.00;99224.38;5077364;28;47258;-60
2022/02/14 04:06:57;;;;;;;;;3.25;3.00;;;;;11.99;64.30;99213.97;5059280;28;52289;-61
2022/02/14 04:09:23;;;;;;;;;3.25;3.25;;;;;11.98;64.68;99223.72;5078134;28;45307;-61
2022/02/14 04:11:48;;;;;;;;;4.00;3.75;;;;;11.97;64.67;99221.22;5078099;28;45280;-61
2022/02/14 04:14:13;;;;;;;;;3.00;3.00;;;;;11.94;64.54;99227.69;5077051;28;69818;-60
2022/02/14 04:16:39;;;;;;;;;6.00;4.00;;;;;11.91;64.81;99238.56;5076721;28;73213;-62
2022/02/14 04:19:04;;;;;;;;;4.00;3.00;;;;;11.90;64.57;99229.03;5076917;28;64029;-60
2022/02/14 04:21:31;;;;;;;;;4.00;4.00;;;;;11.86;64.69;99236.47;5077731;28;45400;-61
2022/02/14 04:23:56;;;;;;;;;3.00;3.00;;;;;11.86;64.09;99247.00;5077161;28;45396;-61
2022/02/14 04:26:21;;;;;;;;;4.50;3.00;;;;;11.84;64.45;99283.19;5077662;28;45218;-60
2022/02/14 04:28:47;;;;;;;;;3.00;2.00;;;;;11.82;64.18;99276.47;5077370;28;56114;-61
2022/02/14 04:31:12;;;;;;;;;0.25;0.00;;;;;11.80;62.80;99283.72;5076806;27;60223;-60
2022/02/14 04:33:37;;;;;;;;;2.00;0.00;;;;;11.74;62.02;99282.59;5076887;28;66445;-60
2022/02/14 04:36:03;;;;;;;;;0.00;0.00;;;;;11.66;61.96;99299.25;5058575;28;72084;-60
2022/02/14 04:38:28;;;;;;;;;0.00;0.00;;;;;11.61;61.30;99311.28;5077663;28;45461;-61
2022/02/14 04:40:54;;;;;;;;;1.00;0.00;;;;;11.53;61.35;99305.09;5076568;28;69423;-60
2022/02/14 04:43:19;;;;;;;;;0.00;0.00;;;;;11.47;61.10;99318.13;5076418;28;75557;-61
2022/02/14 04:45:44;;;;;;;;;0.00;0.00;;;;;11.40;60.97;99316.16;5076556;28;69855;-62
2022/02/14 04:48:10;;;;;;;;;0.00;0.00;;;;;11.34;61.00;99332.63;5076743;28;60532;-61
2022/02/14 04:50:35;;;;;;;;;0.00;0.00;;;;;11.28;60.39;99338.56;5077425;28;45248;-61
2022/02/14 04:53:01;;;;;;;;;0.75;0.00;;;;;11.22;60.38;99336.63;5076103;28;73171;-61
2022/02/14 04:55:26;;;;;;;;;0.50;0.00;;;;;11.16;60.61;99355.69;5076506;28;67825;-61
2022/02/14 04:57:53;;;;;;;;;0.00;0.00;;;;;11.10;60.27;99355.41;5076383;28;67387;-60
2022/02/14 05:00:19;;;;;;;;;1.00;0.00;;;;;11.06;60.46;99356.72;5077084;28;45345;-60
2022/02/14 05:02:44;;;;;;;;;0.00;0.00;;;;;11.04;60.42;99368.38;5077322;28;45437;-61
2022/02/14 05:05:09;;;;;;;;;0.00;0.00;;;;;11.02;60.33;99367.72;5076620;28;56662;-60
2022/02/14 05:07:35;;;;;;;;;0.00;0.00;;;;;10.99;60.41;99371.53;5077143;28;45554;-61
2022/02/14 05:10:00;;;;;;;;;0.00;0.00;;;;;10.98;60.37;99369.88;5077062;28;45477;-61
2022/02/14 05:12:26;;;;;;;;;0.00;0.00;;;;;10.94;60.29;99382.53;5058026;28;66038;-61
2022/02/14 05:14:51;;;;;;;;;1.00;0.00;;;;;10.93;60.29;99388.75;5076847;28;45240;-60
2022/02/14 05:17:17;;;;;;;;;1.00;0.00;;;;;10.91;59.73;99389.94;5077175;28;45232;-61
2022/02/14 05:19:42;;;;;;;;;0.00;0.00;;;;;10.90;59.98;99394.34;5058477;28;50676;-60
2022/02/14 05:22:07;;;;;;;;;0.00;0.00;;;;;10.89;59.90;99402.41;5076835;28;45405;-60
2022/02/14 05:24:33;;;;;;;;;0.00;0.00;;;;;10.86;60.30;99415.88;5076474;28;45460;-61
2022/02/14 05:26:58;;;;;;;;;1.00;0.00;;;;;10.81;60.14;99411.94;5075870;28;66870;-61
2022/02/14 05:29:24;;;;;;;;;0.00;0.00;;;;;10.81;59.86;99425.09;5076050;28;64647;-61
2022/02/14 05:31:49;;;;;;;;;1.75;0.00;;;;;10.78;60.30;99425.41;5076456;27;45318;-61
2022/02/14 05:34:15;;;;;;;;;0.50;0.50;;;;;10.77;60.34;99429.03;5076468;28;45420;-61
2022/02/14 05:36:41;;;;;;;;;0.00;0.00;;;;;10.76;60.25;99437.09;5076138;28;57151;-61
2022/02/14 05:39:07;;;;;;;;;0.00;0.00;;;;;10.74;60.43;99447.75;5076746;28;45511;-60
2022/02/14 05:41:33;;;;;;;;;0.50;0.00;;;;;10.73;60.34;99445.28;5076423;28;46285;-60
2022/02/14 05:44:01;;;;;;;;;0.00;0.00;;;;;10.67;60.62;99441.50;5075696;28;69462;-61
2022/02/14 05:46:30;;;;;;;;;3.00;0.00;;;;;10.71;60.31;99460.41;5076700;28;45337;-60
2022/02/14 05:48:56;;;;;;;;;0.00;0.00;;;;;10.70;60.41;99470.06;5076405;28;45495;-61
2022/02/14 05:51:21;;;;;;;;;0.00;0.00;;;;;10.67;60.16;99458.09;5075277;28;45379;-61
2022/02/14 05:53:47;;;;;;;;;0.00;0.00;;;;;10.67;60.10;99473.03;5075959;28;53014;-60
2022/02/14 05:56:13;;;;;;;;;0.00;0.00;;;;;10.66;60.39;99477.47;5075979;28;48657;-60
2022/02/14 05:58:38;;;;;;;;;0.00;0.00;;;;;10.65;60.52;99480.25;5076430;28;45573;-60
2022/02/14 06:01:04;;;;;;;;;0.00;0.00;;;;;10.64;60.47;99482.06;5076072;28;47651;-61
2022/02/14 06:03:29;;;;;;;;;0.00;0.00;;;;;10.64;60.21;99499.63;5075823;28;50707;-61
2022/02/14 06:05:54;;;;;;;;;1.00;0.00;;;;;10.63;60.29;99483.03;5076440;28;45217;-59
2022/02/14 06:08:21;;;;;;;;;0.00;0.00;;;;;10.63;60.56;99490.09;5075664;28;60333;-60
2022/02/14 06:10:46;;;;;;;;;0.00;0.00;;;;;10.63;60.25;99493.56;5076121;28;45463;-60
2022/02/14 06:13:12;;;;;;;;;0.00;0.00;;;;;10.62;60.61;99497.16;5075170;28;45397;-61
2022/02/14 06:15:37;;;;;;;;;0.00;0.00;;;;;10.60;60.31;99504.38;5075849;28;46642;-61
2022/02/14 06:18:03;;;;;;;;;0.00;0.00;;;;;10.61;60.34;99515.69;5075387;28;64226;-61
2022/02/14 06:20:28;;;;;;;;;0.00;0.00;;;;;10.59;60.26;99512.44;5076090;28;45487;-60
2022/02/14 06:22:53;;;;;;;;;0.00;0.00;;;;;10.58;60.24;99527.38;5074920;28;71594;-60
2022/02/14 06:25:19;;;;;;;;;1.25;0.00;;;;;10.54;60.71;99526.88;5076228;28;45319;-61
2022/02/14 06:27:44;;;;;;;;;0.50;0.00;;;;;10.52;60.36;99539.34;5075983;28;45289;-60
2022/02/14 06:30:10;;;;;;;;;1.00;0.75;;;;;10.51;60.37;99548.22;5078372;27;70477;-60
2022/02/14 06:32:35;;;;;;;;;1.00;0.00;;;;;10.49;60.59;99550.16;5079366;28;45354;-61
2022/02/14 06:35:02;;;;;;;;;0.00;0.00;;;;;10.47;60.54;99554.75;5059949;28;60630;-61
2022/02/14 06:37:28;;;;;;;;;0.00;0.00;;;;;10.45;60.85;99553.25;5061547;28;45266;-61
2022/02/14 06:39:53;;;;;;;;;0.00;0.00;;;;;10.44;60.45;99562.94;5079239;28;45267;-61
2022/02/14 06:42:19;;;;;;;;;1.00;0.00;;;;;10.41;60.82;99568.53;5078422;28;69426;-61
2022/02/14 06:44:44;;;;;;;;;0.00;0.00;;;;;10.36;60.56;99571.56;5079333;28;45211;-61
2022/02/14 06:47:10;;;;;;;;;1.00;1.00;;;;;10.38;61.07;99574.06;5078433;28;65588;-62
2022/02/14 06:49:35;;;;;;;;;0.00;0.00;;;;;10.36;61.00;99573.38;5078336;28;66149;-61
2022/02/14 06:52:01;;;;;;;;;1.00;1.00;;;;;10.34;60.69;99583.22;5078128;28;72537;-60
2022/02/14 06:54:26;;;;;;;;;1.00;0.25;;;;;10.31;61.11;99573.03;5079307;28;45161;-60
2022/02/14 06:56:51;;;;;;;;;2.00;0.75;;;;;10.29;60.96;99575.00;5078155;28;70457;-61
2022/02/14 06:59:19;;;;;;;;;2.00;0.50;;;;;10.29;60.93;99572.38;5078257;28;66419;-61
2022/02/14 07:01:44;;;;;;;;;3.00;1.00;;;;;10.24;61.09;99572.88;5079154;28;45771;-60
2022/02/14 07:04:10;;;;;;;;;2.75;2.50;;;;;10.21;61.06;99565.31;5079062;28;45405;-61
2022/02/14 07:06:35;;;;;;;;;10.00;8.50;;;;;10.16;60.92;99573.63;5078905;28;45383;-61
2022/02/14 07:09:01;;;;;;;;;23.00;21.25;;;;;10.14;61.39;99578.22;5078665;28;47000;-60
2022/02/14 07:11:27;;;;;;;;;2.00;2.00;;;;;10.12;60.97;99584.63;5060682;28;45553;-60
2022/02/14 07:13:52;;;;;;;;;1.00;1.00;;;;;10.09;61.00;99581.31;5079157;28;45424;-61
2022/02/14 07:16:17;;;;;;;;;0.75;0.00;;;;;10.06;61.38;99586.88;5077604;28;63556;-61
2022/02/14 07:18:43;;;;;;;;;0.75;0.75;;;;;10.03;61.30;99591.63;5078722;28;45902;-60
2022/02/14 07:21:08;;;;;;;;;1.50;0.00;;;;;10.00;61.30;99586.69;5078160;28;63664;-61
2022/02/14 07:23:34;;;;;;;;;0.75;0.00;;;;;9.99;61.34;99592.91;5078987;28;45154;-60
2022/02/14 07:25:59;;;;;;;;;3.50;2.00;;;;;9.97;61.33;99597.50;5078685;28;45458;-60
2022/02/14 07:28:25;;;;;;;;;1.50;1.50;;;;;9.93;61.30;99600.44;5077329;28;72599;-60
2022/02/14 07:30:50;;;;;;;;;0.25;0.25;;;;;9.93;61.63;99612.72;5077455;27;64450;-61
2022/02/14 07:33:15;;;;;;;;;2.25;1.00;;;;;9.92;61.32;99617.16;5078023;28;55422;-61
2022/02/14 07:35:41;;;;;;;;;1.25;0.00;;;;;9.92;61.53;99621.56;5078467;28;45166;-61
2022/02/14 07:38:06;;;;;;;;;0.50;0.50;;;;;9.91;61.48;99625.16;5078282;28;48984;-60
2022/02/14 07:40:32;;;;;;;;;3.75;1.00;;;;;9.90;61.70;99623.50;5077181;28;45178;-60
2022/02/14 07:42:57;;;;;;;;;4.00;3.00;;;;;9.90;61.93;99636.63;5077991;28;45224;-61
2022/02/14 07:45:23;;;;;;;;;4.00;1.00;;;;;9.92;62.10;99632.91;5078330;28;45284;-60
2022/02/14 07:47:49;;;;;;;;;1.00;1.00;;;;;9.94;61.62;99625.69;5078243;28;47173;-61
2022/02/14 07:50:14;;;;;;;;;3.50;1.75;;;;;9.97;61.82;99639.47;5078288;28;45688;-61
2022/02/14 07:52:40;;;;;;;;;5.75;3.50;;;;;9.95;61.72;99635.22;5078172;28;45385;-61
2022/02/14 07:55:06;;;;;;;;;3.00;3.00;;;;;9.97;61.61;99640.28;5077500;28;61202;-60
2022/02/14 07:57:31;;;;;;;;;3.25;2.00;;;;;9.98;61.68;99641.94;5077110;28;46054;-61
2022/02/14 07:59:57;;;;;;;;;2.00;2.00;;;;;9.99;61.17;99653.28;5076995;28;70798;-61
2022/02/14 08:02:22;;;;;;;;;4.00;1.25;;;;;10.00;61.26;99647.06;5078255;28;45299;-60
2022/02/14 08:04:48;;;;;;;;;2.00;1.00;;;;;10.00;60.78;99649.69;5077299;28;63231;-61
2022/02/14 08:07:13;;;;;;;;;3.50;1.75;;;;;10.01;61.10;99649.50;5076818;28;73373;-60
2022/02/14 08:09:39;;;;;;;;;2.00;1.00;;;;;10.03;60.71;99655.44;5077306;28;68680;-61
2022/02/14 08:12:07;;;;;;;;;0.75;0.75;;;;;10.04;61.05;99664.94;5078181;28;45520;-60
2022/02/14 08:14:33;;;;;;;;;1.50;1.00;;;;;10.05;60.72;99671.03;5077779;28;45286;-61
2022/02/14 08:16:58;;;;;;;;;1.75;1.00;;;;;10.06;60.70;99670.88;5075622;28;49881;-61
2022/02/14 08:19:24;;;;;;;;;2.25;2.00;;;;;10.08;60.89;99670.69;5077716;28;45233;-61
2022/02/14 08:21:49;;;;;;;;;1.75;1.75;;;;;10.09;60.51;99673.19;5077189;28;64825;-61
2022/02/14 08:24:14;;;;;;;;;2.25;1.00;;;;;10.13;60.72;99681.56;5077437;28;50301;-60
2022/02/14 08:26:40;;;;;;;;;2.25;1.75;;;;;10.15;60.72;99684.06;5076874;28;65581;-61
2022/02/14 08:29:06;;;;;;;;;2.50;1.75;;;;;10.18;60.83;99687.19;5077402;28;45413;-61
2022/02/14 08:31:31;;;;;;;;;3.25;2.25;;;;;10.21;60.54;99688.69;5076604;27;45307;-60
2022/02/14 08:33:59;;;;;;;;;3.00;1.50;;;;;10.22;60.00;99693.75;5079808;27;45303;-61
2022/02/14 08:36:28;;;;;;;;;4.00;2.50;;;;;10.25;59.93;99693.47;5080230;27;45274;-61
2022/02/14 08:38:53;;;;;;;;;5.75;3.50;;;;;10.28;60.13;99697.59;5098127;27;45380;-61
2022/02/14 08:41:19;;;;;;;;;4.75;3.25;;;;;10.33;60.09;99697.13;5097560;27;58820;-61
2022/02/14 08:43:48;;;;;;;;;4.00;1.00;;;;;10.39;59.49;99702.59;5097947;27;45411;-61
2022/02/14 08:46:13;;;;;;;;;3.50;2.00;;;;;10.46;59.29;99699.34;5097679;27;46108;-61
2022/02/14 08:48:39;;;;;;;;;3.00;1.00;;;;;10.54;59.44;99699.41;5097809;27;45856;-61
2022/02/14 08:51:05;;;;;;;;;4.50;3.00;;;;;10.62;59.49;99701.22;5096903;27;61747;-61
2022/02/14 08:53:33;;;;;;;;;4.25;1.00;;;;;10.76;58.65;99705.91;5097600;27;45335;-61
2022/02/14 08:55:59;;;;;;;;;2.00;2.00;;;;;10.90;58.63;99701.03;5097570;27;46001;-60
2022/02/14 08:58:25;;;;;;;;;5.75;3.00;;;;;11.07;58.70;99704.53;5097649;27;45298;-61
2022/02/14 09:00:50;;;;;;;;;1.50;1.50;;;;;11.29;58.20;99705.72;5097444;27;45318;-61
2022/02/14 09:03:16;;;;;;;;;3.00;1.75;;;;;11.46;57.74;99716.28;5096763;27;66465;-61
2022/02/14 09:05:41;;;;;;;;;4.25;1.00;;;;;11.62;57.17;99704.97;5096484;27;73470;-60
2022/02/14 09:08:07;;;;;;;;;3.00;2.00;;;;;11.80;56.40;99710.06;5096588;27;63475;-61
2022/02/14 09:10:35;;;;;;;;;2.75;1.00;;;;;11.97;56.39;99702.97;5079527;27;45257;-61
2022/02/14 09:13:00;;;;;;;;;2.25;2.25;;;;;12.12;55.84;99709.25;5097430;27;45346;-61
2022/02/14 09:15:26;;;;;;;;;2.00;1.00;;;;;12.26;55.63;99713.00;5097016;27;45383;-61
2022/02/14 09:17:52;;;;;;;;;3.00;1.75;;;;;12.40;55.57;99697.50;5097218;27;45498;-60
2022/02/14 09:20:22;;;;;;;;;3.75;1.25;;;;;12.52;55.43;99704.06;5096752;27;45391;-60
2022/02/14 09:22:48;;;;;;;;;1.75;1.50;;;;;12.68;55.08;99708.47;5097282;27;45269;-60
2022/02/14 09:25:13;;;;;;;;;1.00;1.00;;;;;12.78;54.62;99713.53;5096837;27;45377;-61
2022/02/14 09:27:39;;;;;;;;;2.50;2.00;;;;;12.82;54.11;99720.09;5095821;27;72550;-62
2022/02/14 09:30:05;;;;;;;;;3.25;2.75;;;;;12.76;54.06;99713.72;5091697;27;45231;-60
2022/02/14 09:32:31;;;;;;;;;2.00;2.00;;;;;12.68;53.85;99715.56;5076824;28;45240;-61
2022/02/14 09:34:56;;;;;;;;;1.25;1.00;;;;;12.63;53.71;99720.53;5076457;28;45900;-60
2022/02/14 09:37:22;;;;;;;;;3.50;1.00;;;;;12.52;53.53;99722.53;5040832;28;59143;-61
2022/02/14 09:39:47;;;;;;;;;5.00;5.00;;;;;12.43;53.76;99723.53;5058151;28;45244;-60
2022/02/14 09:42:12;;;;;;;;;2.25;2.25;;;;;12.32;54.20;99730.78;5076331;28;45577;-61
2022/02/14 09:44:38;;;;;;;;;3.25;2.25;;;;;12.20;54.02;99720.78;5076081;28;46018;-61
2022/02/14 09:47:04;;;;;;;;;1.75;1.00;;;;;12.09;54.51;99729.84;5075405;28;68747;-60
2022/02/14 09:49:29;;;;;;;;;3.00;1.75;;;;;11.98;54.93;99734.41;5076671;28;45341;-61
2022/02/14 09:51:56;;;;;;;;;2.00;2.00;;;;;11.89;54.52;99740.66;5075733;28;61760;-61
2022/02/14 09:54:21;;;;;;;;;2.25;2.25;;;;;11.82;54.42;99742.31;5076090;28;47455;-61
2022/02/14 09:56:47;;;;;;;;;1.50;1.00;;;;;11.76;54.99;99753.47;5076066;28;45423;-60
2022/02/14 09:59:14;;;;;;;;;4.50;1.00;;;;;11.71;54.81;99753.97;5075996;28;45374;-61
2022/02/14 10:01:39;;;;;;;;;2.25;1.75;;;;;11.68;55.39;99763.00;5075844;28;45445;-61
2022/02/14 10:04:05;;;;;;;;;3.00;2.00;;;;;11.64;54.85;99774.88;5055721;28;45839;-61
2022/02/14 10:06:31;;;;;;;;;1.00;1.00;;;;;11.58;55.56;99760.53;5075535;28;45383;-61
2022/02/14 10:09:14;;;;;;;;;2.00;1.50;;;;;11.51;55.34;99756.91;5076307;28;45280;-61
2022/02/14 10:12:02;;;;;;;;;3.25;2.00;;;;;11.51;55.58;99771.88;5076181;28;45353;-61
2022/02/14 10:14:27;;;;;;;;;1.25;1.25;;;;;11.46;55.31;99769.72;5060016;28;46138;-60
2022/02/14 10:17:01;;;;;;;;;2.00;2.00;;;;;11.42;55.81;99771.00;5075587;28;45308;-60
2022/02/14 10:19:28;;;;;;;;;3.00;1.50;;;;;11.40;56.09;99781.72;5075838;28;45259;-61
2022/02/14 10:21:54;;;;;;;;;9.25;6.00;;;;;11.37;56.04;99773.31;5057901;28;45641;-61
2022/02/14 10:24:19;;;;;;;;;8.00;4.00;;;;;11.35;56.18;99770.03;5057887;28;45423;-61
2022/02/14 10:26:47;;;;;;;;;5.00;4.00;;;;;11.34;56.21;99773.66;5075796;28;45363;-61
2022/02/14 10:29:15;;;;;;;;;19.25;14.00;;;;;11.34;56.50;99766.56;5075863;28;45422;-61
2022/02/14 10:31:42;;;;;;;;;4.00;2.00;;;;;11.36;56.20;99774.31;5075463;28;45237;-60
2022/02/14 10:34:07;;;;;;;;;23.75;15.25;;;;;11.37;56.77;99776.78;5075470;28;45245;-61
2022/02/14 10:36:34;;;;;;;;;8.00;4.00;;;;;11.38;56.51;99781.03;5074683;28;55965;-61
2022/02/14 10:39:09;;;;;;;;;2.25;2.00;;;;;11.39;56.06;99787.94;5057726;28;45327;-60
2022/02/14 10:41:34;;;;;;;;;3.75;1.25;;;;;11.40;55.95;99794.88;5075611;28;45260;-61
2022/02/14 10:44:13;;;;;;;;;6.25;5.00;;;;;11.38;56.36;99796.03;5056908;28;45380;-61
2022/02/14 10:46:39;;;;;;;;;2.50;2.00;;;;;11.38;56.38;99791.56;5075662;28;45366;-60
2022/02/14 10:49:05;;;;;;;;;2.75;1.75;;;;;11.37;56.03;99797.00;5075688;28;45472;-61
2022/02/14 10:51:31;;;;;;;;;6.00;3.00;;;;;11.37;55.91;99784.66;5057561;28;45471;-61
2022/02/14 10:53:57;;;;;;;;;3.50;3.00;;;;;11.37;56.22;99789.91;5073959;28;46093;-62
2022/02/14 10:56:22;;;;;;;;;8.25;7.50;;;;;11.36;56.28;99790.91;5075191;28;45399;-61
2022/02/14 10:58:48;;;;;;;;;3.50;2.00;;;;;11.40;56.49;99794.88;5057519;28;45296;-61
2022/02/14 11:01:14;;;;;;;;;7.00;2.00;;;;;11.46;56.64;99790.75;5074289;28;45403;-62
2022/02/14 11:03:40;;;;;;;;;1.00;1.00;;;;;11.57;55.20;99782.56;5075364;28;46085;-61
2022/02/14 11:06:06;;;;;;;;;2.00;1.00;;;;;11.74;54.56;99777.34;5075479;28;45248;-61
2022/02/14 11:08:36;;;;;;;;;3.00;1.50;;;;;11.96;54.24;99770.63;5075012;28;45260;-61
2022/02/14 11:11:02;;;;;;;;;4.00;1.00;;;;;12.26;53.92;99762.25;5075488;28;45397;-61
2022/02/14 11:13:28;;;;;;;;;1.00;1.00;;;;;12.56;53.13;99754.59;5075559;28;46153;-61
2022/02/14 11:15:54;;;;;;;;;3.00;1.00;;;;;12.89;52.86;99757.16;5060318;28;45493;-61
2022/02/14 11:18:21;;;;;;;;;1.00;1.00;;;;;13.24;52.13;99760.31;5078764;28;45510;-61
2022/02/14 11:20:47;;;;;;;;;5.25;2.00;;;;;13.56;51.32;99762.97;5078823;28;45519;-60
2022/02/14 11:23:14;;;;;;;;;2.25;2.25;;;;;13.88;50.68;99758.44;5078694;28;45331;-62
2022/02/14 11:25:41;;;;;;;;;3.50;1.00;;;;;14.21;50.06;99755.53;5059809;28;45791;-61
2022/02/14 11:28:17;;;;;;;;;3.00;2.00;;;;;14.56;48.54;99741.84;5078701;28;45228;-62